Time;durP1;ratioP1;P1;durP2;ratioP2;P2;SDS_P1;SDS_P2;PMS_P1;PMS_P2;Temp;Humidity;BMP_temperature;BMP_pressure;BME280_temperature;BME280_humidity;BME280_pressure;Samples;Min_cycle;Max_cycle;Signal;HPM_P1;HPM_P2
2021/08/15 00:02:09;;;;;;;10.35;3.47;;;;;;;13.95;100.00;100615.03;4958105;28;20031;-81
2021/08/15 00:04:35;;;;;;;11.65;3.72;;;;;;;13.98;100.00;100613.19;4957096;29;20051;-81
2021/08/15 00:07:00;;;;;;;20.48;4.63;;;;;;;13.94;100.00;100611.56;4957601;28;20192;-81
2021/08/15 00:09:25;;;;;;;15.60;3.88;;;;;;;13.91;100.00;100606.44;4956683;28;20050;-81
2021/08/15 00:11:50;;;;;;;16.65;4.05;;;;;;;13.93;100.00;100602.03;4956490;28;20480;-81
2021/08/15 00:14:16;;;;;;;13.48;4.00;;;;;;;13.84;100.00;100594.50;4958835;28;20031;-81
2021/08/15 00:16:41;;;;;;;15.75;4.00;;;;;;;13.87;100.00;100588.34;4955932;29;20027;-81
2021/08/15 00:19:07;;;;;;;14.57;4.65;;;;;;;13.86;100.00;100582.28;4956963;29;20507;-81
2021/08/15 00:21:33;;;;;;;12.73;3.70;;;;;;;13.87;100.00;100583.97;4957016;28;20090;-81
2021/08/15 00:23:59;;;;;;;11.35;3.92;;;;;;;13.90;100.00;100583.03;4958624;28;20031;-81
2021/08/15 00:26:25;;;;;;;16.55;3.65;;;;;;;13.92;100.00;100576.88;4955624;29;20027;-81
2021/08/15 00:28:50;;;;;;;13.48;3.55;;;;;;;14.09;100.00;100573.72;4956952;29;20094;-81
2021/08/15 00:31:15;;;;;;;15.00;3.80;;;;;;;14.18;100.00;100576.03;4956808;28;20023;-81
2021/08/15 00:33:41;;;;;;;16.92;4.35;;;;;;;14.29;100.00;100570.47;4956613;29;20432;-81
2021/08/15 00:36:07;;;;;;;12.65;3.63;;;;;;;14.37;100.00;100572.81;4956599;28;20023;-81
2021/08/15 00:38:32;;;;;;;21.38;4.32;;;;;;;14.47;100.00;100569.84;4957321;28;20420;-81
2021/08/15 00:40:57;;;;;;;18.05;3.95;;;;;;;14.57;100.00;100577.41;4955225;28;20055;-80
2021/08/15 00:43:23;;;;;;;17.77;4.05;;;;;;;14.60;100.00;100566.84;4956466;29;20027;-81
2021/08/15 00:45:48;;;;;;;15.25;3.70;;;;;;;14.69;100.00;100575.22;4956561;28;20110;-81
2021/08/15 00:48:13;;;;;;;13.30;3.53;;;;;;;14.73;100.00;100579.41;4957227;28;20420;-80
2021/08/15 00:50:38;;;;;;;13.95;3.90;;;;;;;14.76;100.00;100577.59;4954760;28;20035;-81
2021/08/15 00:53:05;;;;;;;15.88;3.60;;;;;;;14.79;100.00;100570.50;4957368;29;20033;-81
2021/08/15 00:55:30;;;;;;;19.52;4.22;;;;;;;14.79;100.00;100567.06;4956261;28;20027;-81
2021/08/15 00:57:57;;;;;;;11.15;3.28;;;;;;;14.79;100.00;100564.44;4955730;29;20592;-81
2021/08/15 01:00:22;;;;;;;13.80;3.85;;;;;;;14.88;100.00;100569.34;4954804;28;20023;-81
2021/08/15 01:02:48;;;;;;;11.95;4.00;;;;;;;14.88;100.00;100566.72;4955913;29;20083;-81
2021/08/15 01:05:13;;;;;;;8.90;2.95;;;;;;;14.87;100.00;100558.03;4954864;29;20641;-81
2021/08/15 01:07:40;;;;;;;11.55;3.85;;;;;;;14.87;100.00;100559.78;4955610;29;20117;-81
2021/08/15 01:10:06;;;;;;;13.52;3.58;;;;;;;14.89;100.00;100556.22;4954778;28;20027;-81
2021/08/15 01:12:32;;;;;;;10.65;3.50;;;;;;;14.83;100.00;100552.97;4956731;28;20031;-81
2021/08/15 01:14:58;;;;;;;12.43;3.20;;;;;;;14.86;100.00;100553.69;4954861;29;20078;-81
2021/08/15 01:17:24;;;;;;;10.18;2.78;;;;;;;14.87;100.00;100555.44;4955218;29;20589;-81
2021/08/15 01:19:54;;;;;;;12.18;3.50;;;;;;;14.90;100.00;100552.72;4954776;28;20023;-81
2021/08/15 01:22:20;;;;;;;9.18;3.20;;;;;;;14.84;100.00;100550.31;4954948;28;20027;-80
2021/08/15 01:24:45;;;;;;;10.27;3.10;;;;;;;14.90;100.00;100542.25;4956313;28;20511;-80
2021/08/15 01:27:12;;;;;;;10.35;3.70;;;;;;;14.93;100.00;100543.88;4956245;28;20031;-80
2021/08/15 01:29:37;;;;;;;11.65;3.05;;;;;;;14.83;100.00;100535.53;4954793;28;20019;-80
2021/08/15 01:32:03;;;;;;;11.50;3.08;;;;;;;14.80;100.00;100533.03;4954930;29;20070;-80
2021/08/15 01:34:28;;;;;;;14.85;3.65;;;;;;;14.92;100.00;100532.59;4955958;28;20030;-80
2021/08/15 01:36:53;;;;;;;9.93;3.03;;;;;;;14.97;100.00;100532.44;4954601;29;20074;-80
2021/08/15 01:39:18;;;;;;;10.20;3.28;;;;;;;14.94;100.00;100535.16;4955076;28;20030;-81
2021/08/15 01:41:44;;;;;;;12.48;2.75;;;;;;;15.01;100.00;100533.16;4954678;29;20058;-81
2021/08/15 01:44:09;;;;;;;10.05;3.10;;;;;;;14.98;100.00;100521.06;4954517;29;20024;-80
2021/08/15 01:46:35;;;;;;;13.38;3.28;;;;;;;15.02;100.00;100519.19;4954712;29;20026;-80
2021/08/15 01:49:01;;;;;;;10.50;3.00;;;;;;;14.99;100.00;100521.91;4956509;28;20034;-80
2021/08/15 01:51:27;;;;;;;10.45;2.92;;;;;;;15.05;100.00;100516.47;4954775;28;20456;-80
2021/08/15 01:53:55;;;;;;;12.90;2.65;;;;;;;15.04;100.00;100518.22;4954700;29;20034;-81
2021/08/15 01:56:21;;;;;;;12.20;3.53;;;;;;;15.04;100.00;100522.59;4955284;29;20031;-81
2021/08/15 01:58:46;;;;;;;11.27;2.60;;;;;;;15.05;100.00;100519.06;4955949;29;20031;-81
2021/08/15 02:01:17;;;;;;;8.85;2.65;;;;;;;15.10;100.00;100514.53;4956154;28;20024;-80
2021/08/15 02:03:43;;;;;;;11.05;2.70;;;;;;;15.10;100.00;100518.00;4954547;29;20461;-80
2021/08/15 02:06:08;;;;;;;10.63;2.90;;;;;;;15.07;100.00;100517.28;4954702;29;20019;-81
2021/08/15 02:08:34;;;;;;;12.15;2.70;;;;;;;15.11;100.00;100521.47;4954418;29;20032;-81
2021/08/15 02:11:00;;;;;;;12.20;3.00;;;;;;;15.05;100.00;100511.25;4954635;28;20031;-81
2021/08/15 02:13:25;;;;;;;14.75;3.13;;;;;;;15.12;100.00;100516.19;4954270;29;20023;-81
2021/08/15 02:15:50;;;;;;;9.48;2.70;;;;;;;15.12;100.00;100521.41;4954592;29;20117;-80
2021/08/15 02:18:16;;;;;;;12.75;3.22;;;;;;;15.15;100.00;100520.47;4954367;29;20078;-81
2021/08/15 02:20:41;;;;;;;10.90;2.88;;;;;;;15.09;100.00;100515.47;4954867;28;20046;-81
2021/08/15 02:23:06;;;;;;;9.82;2.95;;;;;;;15.01;100.00;100520.13;4954280;29;20030;-81
2021/08/15 02:25:31;;;;;;;10.55;2.83;;;;;;;15.09;100.00;100520.69;4956217;28;20110;-81
2021/08/15 02:27:57;;;;;;;12.60;2.70;;;;;;;15.09;100.00;100523.31;4955254;28;20034;-81
2021/08/15 02:30:24;;;;;;;10.85;2.78;;;;;;;15.14;100.00;100518.72;4956245;28;20440;-81
2021/08/15 02:32:50;;;;;;;9.65;2.88;;;;;;;15.10;100.00;100510.16;4953978;28;20034;-81
2021/08/15 02:35:16;;;;;;;11.70;3.08;;;;;;;15.17;100.00;100509.00;4959323;28;20023;-81
2021/08/15 02:37:44;;;;;;;10.93;2.90;;;;;;;15.09;100.00;100505.00;4958995;28;20026;-81
2021/08/15 02:40:12;;;;;;;10.43;2.75;;;;;;;15.16;100.00;100502.09;4958787;28;20023;-81
2021/08/15 02:42:40;;;;;;;10.80;2.90;;;;;;;15.07;100.00;100496.38;4957083;29;20118;-81
2021/08/15 02:45:07;;;;;;;10.38;2.78;;;;;;;15.16;100.00;100490.81;4959282;28;20033;-81
2021/08/15 02:47:33;;;;;;;12.05;3.42;;;;;;;15.19;100.00;100486.31;4958463;28;20399;-81
2021/08/15 02:49:58;;;;;;;12.90;3.80;;;;;;;15.12;100.00;100481.38;4959132;28;20035;-81
2021/08/15 02:52:23;;;;;;;13.70;3.25;;;;;;;15.17;100.00;100477.66;4956876;29;20031;-81
2021/08/15 02:54:49;;;;;;;9.65;2.90;;;;;;;15.20;100.00;100482.78;4958959;29;20031;-81
2021/08/15 02:57:14;;;;;;;13.07;2.90;;;;;;;15.16;100.00;100480.34;4956880;29;20027;-81
2021/08/15 02:59:40;;;;;;;9.13;2.78;;;;;;;15.20;100.00;100479.31;4957895;28;20027;-81
2021/08/15 03:02:10;;;;;;;11.82;3.05;;;;;;;15.25;100.00;100479.16;4958098;28;20027;-80
2021/08/15 03:04:36;;;;;;;12.23;3.28;;;;;;;15.20;100.00;100477.53;4959223;28;20027;-80
2021/08/15 03:07:01;;;;;;;10.77;3.15;;;;;;;15.22;100.00;100469.66;4956619;29;20488;-80
2021/08/15 03:09:26;;;;;;;13.35;3.70;;;;;;;15.17;100.00;100466.38;4960018;28;20039;-81
2021/08/15 03:11:52;;;;;;;10.63;3.63;;;;;;;15.25;100.00;100476.53;4956865;29;20029;-81
2021/08/15 03:14:17;;;;;;;9.23;3.08;;;;;;;15.19;100.00;100475.00;4959477;28;20042;-81
2021/08/15 03:16:42;;;;;;;11.48;3.17;;;;;;;15.19;100.00;100464.56;4957878;28;20555;-81
2021/08/15 03:19:08;;;;;;;15.10;3.22;;;;;;;15.20;100.00;100469.72;4959699;28;20027;-81
2021/08/15 03:21:35;;;;;;;10.27;2.90;;;;;;;15.18;100.00;100463.72;4956632;28;20126;-81
2021/08/15 03:24:01;;;;;;;10.25;3.03;;;;;;;15.16;100.00;100468.13;4958741;29;20023;-81
2021/08/15 03:26:26;;;;;;;8.95;2.90;;;;;;;15.23;100.00;100470.50;4956513;29;20074;-81
2021/08/15 03:28:51;;;;;;;10.85;3.35;;;;;;;15.17;100.00;100471.59;4957947;28;20054;-81
2021/08/15 03:31:17;;;;;;;12.07;2.88;;;;;;;15.16;100.00;100467.28;4957734;28;20118;-81
2021/08/15 03:33:42;;;;;;;11.95;3.70;;;;;;;15.23;100.00;100460.91;4958336;29;20103;-81
2021/08/15 03:36:07;;;;;;;14.18;3.65;;;;;;;15.20;100.00;100458.41;4956462;29;20027;-81
2021/08/15 03:38:32;;;;;;;13.82;3.67;;;;;;;15.22;100.00;100448.75;4958502;29;20114;-81
2021/08/15 03:40:58;;;;;;;10.23;3.20;;;;;;;15.26;100.00;100436.41;4956318;28;20030;-81
2021/08/15 03:43:23;;;;;;;8.07;2.85;;;;;;;15.27;100.00;100456.41;4960107;28;20044;-81
2021/08/15 03:45:48;;;;;;;10.70;4.18;;;;;;;15.27;100.00;100472.97;4956524;28;20440;-81
2021/08/15 03:48:14;;;;;;;8.52;2.90;;;;;;;15.13;100.00;100481.31;4959763;28;20027;-81
2021/08/15 03:50:39;;;;;;;11.40;3.72;;;;;;;15.22;100.00;100498.41;4955981;28;20031;-81
2021/08/15 03:53:04;;;;;;;10.90;3.17;;;;;;;15.02;100.00;100493.91;4957590;29;20122;-81
2021/08/15 03:55:30;;;;;;;12.30;3.72;;;;;;;14.81;100.00;100473.81;4956573;29;20027;-81
2021/08/15 03:57:55;;;;;;;11.00;3.72;;;;;;;14.72;100.00;100488.09;4958984;29;20031;-81
2021/08/15 04:00:20;;;;;;;10.00;3.88;;;;;;;14.81;100.00;100492.09;4957649;28;20113;-81
2021/08/15 04:02:46;;;;;;;11.23;3.78;;;;;;;14.67;100.00;100482.19;4957299;28;20027;-81
2021/08/15 04:05:11;;;;;;;13.80;3.72;;;;;;;14.64;100.00;100464.03;4956146;29;20031;-81
2021/08/15 04:07:36;;;;;;;11.88;3.90;;;;;;;14.61;100.00;100461.53;4958114;29;20444;-81
2021/08/15 04:10:03;;;;;;;11.35;4.13;;;;;;;14.58;100.00;100472.91;4957898;28;20027;-81
2021/08/15 04:12:32;;;;;;;10.88;3.67;;;;;;;14.53;100.00;100460.94;4958281;28;20035;-81
2021/08/15 04:14:57;;;;;;;11.60;4.15;;;;;;;14.60;100.00;100452.84;4956404;29;20027;-81
2021/08/15 04:17:22;;;;;;;13.35;4.13;;;;;;;14.48;100.00;100461.09;4956452;29;20416;-81
2021/08/15 04:19:47;;;;;;;10.77;4.00;;;;;;;14.39;100.00;100456.19;4957416;28;20078;-81
2021/08/15 04:22:13;;;;;;;10.45;4.07;;;;;;;14.37;100.00;100464.06;4955865;29;20508;-81
2021/08/15 04:24:38;;;;;;;10.75;3.90;;;;;;;14.36;100.00;100469.34;4956453;29;20031;-81
2021/08/15 04:27:04;;;;;;;14.02;3.80;;;;;;;14.37;100.00;100466.66;4956526;29;20035;-81
2021/08/15 04:29:29;;;;;;;12.15;3.90;;;;;;;14.42;100.00;100469.97;4955196;28;20031;-81
2021/08/15 04:31:55;;;;;;;12.73;4.57;;;;;;;14.39;100.00;100462.25;4956122;29;20034;-81
2021/08/15 04:34:20;;;;;;;10.45;4.22;;;;;;;14.31;100.00;100461.66;4955125;29;20031;-81
2021/08/15 04:36:46;;;;;;;13.70;4.20;;;;;;;14.35;100.00;100463.28;4956845;28;20023;-81
2021/08/15 04:39:11;;;;;;;9.60;4.32;;;;;;;14.35;100.00;100473.72;4956257;28;20023;-81
2021/08/15 04:41:36;;;;;;;13.13;4.20;;;;;;;14.33;100.00;100472.91;4955437;28;20045;-81
2021/08/15 04:44:01;;;;;;;14.65;4.50;;;;;;;14.31;100.00;100468.66;4956502;28;20031;-81
2021/08/15 04:46:27;;;;;;;11.73;3.95;;;;;;;14.35;100.00;100471.13;4955305;29;20121;-81
2021/08/15 04:48:52;;;;;;;14.60;4.78;;;;;;;14.21;100.00;100478.56;4954749;29;20067;-81
2021/08/15 04:51:17;;;;;;;11.98;4.30;;;;;;;14.23;100.00;100481.97;4978472;22;20051;-78
2021/08/15 04:53:42;;;;;;;10.55;4.15;;;;;;;14.31;100.00;100479.94;4956158;28;20023;-77
2021/08/15 04:56:08;;;;;;;12.00;4.65;;;;;;;14.17;100.00;100477.81;4955702;28;20384;-77
2021/08/15 04:58:35;;;;;;;14.20;5.30;;;;;;;14.21;100.00;100473.34;4957160;28;20027;-78
2021/08/15 05:01:00;;;;;;;14.93;5.13;;;;;;;14.11;100.00;100456.31;4957972;28;20026;-79
2021/08/15 05:03:26;;;;;;;9.82;4.65;;;;;;;14.21;100.00;100455.06;4957972;28;20027;-78
2021/08/15 05:05:51;;;;;;;12.00;4.60;;;;;;;14.16;100.00;100455.25;4955056;29;20042;-78
2021/08/15 05:08:16;;;;;;;14.80;4.60;;;;;;;14.26;100.00;100466.22;4955152;29;20023;-78
2021/08/15 05:10:43;;;;;;;15.77;4.32;;;;;;;14.30;100.00;100466.94;4954293;28;20019;-78
2021/08/15 05:13:08;;;;;;;11.65;5.28;;;;;;;14.22;100.00;100464.59;4954237;29;20491;-78
2021/08/15 05:15:33;;;;;;;9.52;4.35;;;;;;;14.25;100.00;100461.88;4954044;29;20027;-78
2021/08/15 05:17:59;;;;;;;9.40;4.60;;;;;;;14.27;100.00;100457.47;4955934;28;20019;-77
2021/08/15 05:20:24;;;;;;;11.25;5.47;;;;;;;14.28;100.00;100454.81;4953863;28;20082;-78
2021/08/15 05:22:50;;;;;;;11.40;5.40;;;;;;;14.36;100.00;100456.31;4955252;28;20027;-77
2021/08/15 05:25:15;;;;;;;15.18;5.78;;;;;;;14.31;100.00;100456.44;4953959;29;20027;-77
2021/08/15 05:27:40;;;;;;;12.82;5.53;;;;;;;14.41;100.00;100451.75;4955163;28;20083;-77
2021/08/15 05:30:06;;;;;;;13.10;5.45;;;;;;;14.48;100.00;100455.88;4953875;28;20121;-77
2021/08/15 05:32:32;;;;;;;10.85;4.70;;;;;;;14.59;100.00;100458.94;4953890;29;20070;-77
2021/08/15 05:34:57;;;;;;;13.65;4.93;;;;;;;14.58;100.00;100456.41;4953614;29;20408;-78
2021/08/15 05:37:23;;;;;;;14.20;5.55;;;;;;;14.64;100.00;100461.41;4954892;28;20031;-78
2021/08/15 05:39:48;;;;;;;12.50;4.57;;;;;;;14.58;100.00;100451.19;4953662;28;20468;-77
2021/08/15 05:42:14;;;;;;;15.70;5.30;;;;;;;14.55;100.00;100454.75;4953632;29;20038;-77
2021/08/15 05:44:39;;;;;;;14.82;5.57;;;;;;;14.56;100.00;100447.78;4953678;29;20027;-78
2021/08/15 05:47:05;;;;;;;12.43;5.00;;;;;;;14.49;100.00;100453.19;4953650;29;20162;-77
2021/08/15 05:49:31;;;;;;;10.65;4.57;;;;;;;14.48;100.00;100456.72;4954650;28;20094;-77
2021/08/15 05:51:56;;;;;;;11.20;4.75;;;;;;;14.60;100.00;100444.16;4953572;29;20031;-77
2021/08/15 05:54:22;;;;;;;14.38;5.32;;;;;;;14.51;100.00;100455.78;4954844;28;20034;-77
2021/08/15 05:56:47;;;;;;;13.48;5.30;;;;;;;14.61;100.00;100448.47;4953534;29;20019;-77
2021/08/15 05:59:12;;;;;;;13.95;5.22;;;;;;;14.48;100.00;100445.44;4954811;28;20448;-77
2021/08/15 06:01:38;;;;;;;12.30;5.15;;;;;;;14.37;100.00;100437.97;4954614;28;20030;-77
2021/08/15 06:04:03;;;;;;;12.23;5.05;;;;;;;14.49;100.00;100453.19;4954633;28;20077;-77
2021/08/15 06:06:29;;;;;;;14.18;5.43;;;;;;;14.55;100.00;100446.94;4955065;28;20033;-77
2021/08/15 06:08:54;;;;;;;10.98;4.82;;;;;;;14.66;100.00;100452.63;4954502;28;20031;-77
2021/08/15 06:11:20;;;;;;;13.30;5.10;;;;;;;14.57;100.00;100445.13;4958461;28;20472;-77
2021/08/15 06:13:45;;;;;;;13.18;5.13;;;;;;;14.66;100.00;100450.00;4958780;28;20028;-77
2021/08/15 06:16:10;;;;;;;11.70;4.78;;;;;;;14.86;100.00;100445.78;4957289;29;20042;-77
2021/08/15 06:18:35;;;;;;;12.02;4.90;;;;;;;15.01;100.00;100449.59;4958701;28;20476;-77
2021/08/15 06:21:00;;;;;;;12.55;4.78;;;;;;;15.05;100.00;100456.38;4958604;28;20039;-77
2021/08/15 06:23:26;;;;;;;15.32;5.32;;;;;;;14.86;100.00;100453.63;4957076;29;20038;-77
2021/08/15 06:25:51;;;;;;;12.02;5.25;;;;;;;15.02;100.00;100451.28;4957195;29;20039;-77
2021/08/15 06:28:16;;;;;;;10.88;4.93;;;;;;;15.10;100.00;100449.22;4956862;29;20058;-77
2021/08/15 06:30:41;;;;;;;10.15;3.83;;;;;;;15.12;100.00;100452.66;4958264;28;20039;-77
2021/08/15 06:33:07;;;;;;;15.15;4.95;;;;;;;15.09;100.00;100452.78;4957500;29;20085;-77
2021/08/15 06:35:32;;;;;;;11.32;4.72;;;;;;;15.07;100.00;100454.56;4958155;28;20400;-77
2021/08/15 06:37:57;;;;;;;12.65;4.50;;;;;;;15.03;100.00;100447.78;4958125;28;20023;-77
2021/08/15 06:40:28;;;;;;;12.73;5.15;;;;;;;15.06;100.00;100447.66;4958076;28;20055;-77
2021/08/15 06:43:02;;;;;;;16.02;5.60;;;;;;;15.17;100.00;100456.75;4958027;28;20102;-77
2021/08/15 06:45:28;;;;;;;12.60;4.25;;;;;;;15.17;100.00;100455.91;4957999;28;20027;-77
2021/08/15 06:47:53;;;;;;;12.27;4.53;;;;;;;15.22;100.00;100456.59;4956594;29;20546;-77
2021/08/15 06:50:18;;;;;;;9.98;4.70;;;;;;;15.16;100.00;100451.59;4957763;28;20488;-77
2021/08/15 06:52:43;;;;;;;13.85;4.60;;;;;;;15.21;100.00;100452.28;4958083;28;20027;-77
2021/08/15 06:55:09;;;;;;;12.05;4.55;;;;;;;15.20;100.00;100446.19;4957174;29;20031;-77
2021/08/15 06:57:34;;;;;;;16.55;5.25;;;;;;;15.49;100.00;100445.97;4957093;29;20480;-77
2021/08/15 07:00:01;;;;;;;13.00;5.22;;;;;;;15.48;100.00;100446.88;4957751;28;20031;-77
2021/08/15 07:02:26;;;;;;;13.75;5.35;;;;;;;15.47;100.00;100450.41;4957753;28;20096;-77
2021/08/15 07:04:51;;;;;;;13.23;4.63;;;;;;;15.29;100.00;100441.53;4957702;28;20060;-77
2021/08/15 07:07:16;;;;;;;13.07;4.38;;;;;;;15.42;100.00;100440.13;4956679;29;20046;-77
2021/08/15 07:09:42;;;;;;;12.73;4.82;;;;;;;15.74;100.00;100441.47;4957536;28;20471;-77
2021/08/15 07:12:07;;;;;;;13.55;4.93;;;;;;;15.96;100.00;100436.19;4957977;28;20031;-77
2021/08/15 07:14:32;;;;;;;14.27;5.75;;;;;;;16.16;100.00;100442.31;4957841;28;20035;-77
2021/08/15 07:16:57;;;;;;;13.10;4.68;;;;;;;16.44;100.00;100447.19;4957816;28;20026;-77
2021/08/15 07:19:23;;;;;;;12.13;4.18;;;;;;;16.46;100.00;100442.75;4955870;28;20016;-77
2021/08/15 07:21:49;;;;;;;10.95;4.80;;;;;;;16.33;100.00;100445.91;4957715;28;20395;-78
2021/08/15 07:24:14;;;;;;;15.18;4.80;;;;;;;16.40;100.00;100448.25;4956220;29;20476;-77
2021/08/15 07:26:40;;;;;;;14.43;4.50;;;;;;;16.29;100.00;100452.19;4956369;29;20030;-77
2021/08/15 07:29:05;;;;;;;15.93;5.15;;;;;;;16.37;100.00;100445.78;4957596;28;20027;-78
2021/08/15 07:31:30;;;;;;;13.85;4.70;;;;;;;16.34;100.00;100450.22;4956084;28;20148;-78
2021/08/15 07:33:55;;;;;;;13.02;4.60;;;;;;;16.24;100.00;100446.31;4957662;28;20527;-77
2021/08/15 07:36:21;;;;;;;11.27;4.25;;;;;;;16.23;100.00;100454.25;4956333;29;20141;-77
2021/08/15 07:38:46;;;;;;;15.07;4.93;;;;;;;16.21;100.00;100442.97;4957192;28;20027;-77
2021/08/15 07:41:11;;;;;;;12.27;5.13;;;;;;;16.18;100.00;100445.72;4955753;28;20129;-77
2021/08/15 07:43:37;;;;;;;14.00;5.78;;;;;;;16.17;100.00;100447.50;4957092;28;20034;-77
2021/08/15 07:46:03;;;;;;;15.43;5.18;;;;;;;16.03;100.00;100439.38;4957211;28;20027;-77
2021/08/15 07:48:28;;;;;;;11.02;4.97;;;;;;;16.31;100.00;100439.03;4957017;28;20034;-77
2021/08/15 07:50:53;;;;;;;12.45;4.75;;;;;;;16.30;100.00;100438.19;4956893;28;20153;-77
2021/08/15 07:53:23;;;;;;;10.85;4.50;;;;;;;16.21;100.00;100433.34;4957182;28;20024;-78
2021/08/15 07:55:49;;;;;;;11.57;4.65;;;;;;;16.21;100.00;100429.88;4955796;29;20027;-78
2021/08/15 07:58:15;;;;;;;16.02;4.88;;;;;;;16.31;100.00;100423.31;4956877;28;20480;-78
2021/08/15 08:00:40;;;;;;;14.32;5.32;;;;;;;16.60;100.00;100429.91;4955476;28;20051;-78
2021/08/15 08:03:06;;;;;;;13.80;4.70;;;;;;;16.61;100.00;100428.97;4956896;28;20543;-78
2021/08/15 08:05:31;;;;;;;12.65;5.15;;;;;;;16.70;100.00;100432.94;4956738;28;20078;-78
2021/08/15 08:07:57;;;;;;;12.20;5.03;;;;;;;16.80;100.00;100435.09;4955576;29;20392;-78
2021/08/15 08:10:22;;;;;;;14.05;4.93;;;;;;;16.99;100.00;100448.22;4955350;28;20027;-77
2021/08/15 08:12:48;;;;;;;12.13;4.93;;;;;;;16.88;100.00;100445.22;4955310;29;20116;-77
2021/08/15 08:15:13;;;;;;;13.65;5.32;;;;;;;16.77;100.00;100452.72;4956577;28;20023;-77
2021/08/15 08:17:39;;;;;;;9.30;4.35;;;;;;;16.72;100.00;100442.44;4956906;28;20043;-77
2021/08/15 08:20:05;;;;;;;12.90;5.82;;;;;;;17.06;100.00;100442.66;4956780;28;20031;-77
2021/08/15 08:22:30;;;;;;;14.43;5.45;;;;;;;17.20;100.00;100435.84;4956371;28;20027;-77
2021/08/15 08:24:55;;;;;;;12.57;5.20;;;;;;;17.25;100.00;100428.63;4955149;29;20388;-78
2021/08/15 08:27:21;;;;;;;16.67;5.75;;;;;;;17.25;100.00;100436.47;4956654;28;20030;-77
2021/08/15 08:29:46;;;;;;;13.52;5.00;;;;;;;17.35;100.00;100430.78;4956043;28;20106;-77
2021/08/15 08:32:12;;;;;;;13.55;5.82;;;;;;;17.55;100.00;100433.31;4955604;28;20113;-77
2021/08/15 08:34:37;;;;;;;12.52;5.38;;;;;;;17.69;100.00;100425.59;4956308;28;20027;-78
2021/08/15 08:37:03;;;;;;;14.88;6.03;;;;;;;17.71;100.00;100433.41;4957228;28;20035;-78
2021/08/15 08:39:30;;;;;;;16.83;6.45;;;;;;;17.46;100.00;100431.13;4956171;28;20023;-77
2021/08/15 08:41:58;;;;;;;18.85;6.60;;;;;;;17.28;100.00;100432.88;4954868;29;20027;-77
2021/08/15 08:44:25;;;;;;;14.05;5.68;;;;;;;17.14;100.00;100428.28;4956006;28;20023;-77
2021/08/15 08:46:51;;;;;;;14.88;6.35;;;;;;;17.38;100.00;100436.75;4955790;28;20391;-77
2021/08/15 08:49:16;;;;;;;17.20;6.50;;;;;;;17.48;100.00;100435.34;4956107;28;20031;-77
2021/08/15 08:51:44;;;;;;;18.58;5.97;;;;;;;17.31;100.00;100426.63;4954407;28;20035;-77
2021/08/15 08:54:10;;;;;;;15.82;6.95;;;;;;;16.88;100.00;100432.13;4956113;28;20054;-77
2021/08/15 08:56:36;;;;;;;20.90;7.88;;;;;;;17.25;100.00;100423.38;4956014;28;20081;-76
2021/08/15 08:59:01;;;;;;;22.02;8.20;;;;;;;17.20;100.00;100427.13;4954597;29;20030;-77
2021/08/15 09:01:27;;;;;;;17.85;6.88;;;;;;;16.93;100.00;100422.28;4955519;28;20034;-77
2021/08/15 09:03:54;;;;;;;17.23;7.88;;;;;;;17.06;100.00;100419.06;4955579;28;20082;-77
2021/08/15 09:06:25;;;;;;;17.40;7.03;;;;;;;17.15;100.00;100416.88;4955620;28;20035;-77
2021/08/15 09:08:52;;;;;;;21.95;8.15;;;;;;;17.30;100.00;100417.91;4955550;28;20024;-77
2021/08/15 09:11:25;;;;;;;16.70;7.40;;;;;;;17.23;100.00;100408.63;4955585;28;20391;-77
2021/08/15 09:14:01;;;;;;;23.67;8.57;;;;;;;17.17;100.00;100417.63;4955612;28;20510;-77
2021/08/15 09:16:50;;;;;;;20.65;8.20;;;;;;;17.28;100.00;100411.91;4955461;28;20071;-77
2021/08/15 09:19:28;;;;;;;18.70;8.15;;;;;;;16.91;100.00;100399.72;4955415;28;20027;-77
2021/08/15 09:21:57;;;;;;;23.90;8.18;;;;;;;17.00;100.00;100405.34;4955260;28;20039;-77
2021/08/15 09:24:22;;;;;;;21.40;8.35;;;;;;;17.26;100.00;100404.09;4955310;28;20078;-77
2021/08/15 09:26:58;;;;;;;18.60;7.97;;;;;;;17.23;100.00;100398.16;4955387;28;20023;-76
2021/08/15 09:29:24;;;;;;;26.13;8.45;;;;;;;17.18;100.00;100398.41;4955234;28;20023;-77
2021/08/15 09:31:50;;;;;;;22.77;8.73;;;;;;;17.19;100.00;100396.63;4955193;28;20035;-77
2021/08/15 09:34:29;;;;;;;23.60;9.13;;;;;;;17.03;100.00;100393.88;4955407;28;20365;-77
2021/08/15 09:36:55;;;;;;;25.70;8.77;;;;;;;17.11;100.00;100391.72;4955373;28;20077;-76
2021/08/15 09:39:35;;;;;;;25.50;10.07;;;;;;;17.37;100.00;100387.00;4955421;28;20500;-76
2021/08/15 09:42:01;;;;;;;22.27;8.07;;;;;;;17.75;100.00;100384.25;4955220;28;20074;-77
2021/08/15 09:44:31;;;;;;;18.40;8.02;;;;;;;17.91;100.00;100382.56;4954994;28;20027;-77
2021/08/15 09:47:10;;;;;;;21.17;8.02;;;;;;;18.25;100.00;100389.50;4955274;28;20365;-77
2021/08/15 09:49:44;;;;;;;19.67;8.18;;;;;;;18.48;100.00;100387.47;4954752;28;20050;-77
2021/08/15 09:52:11;;;;;;;;;;;;;;;18.45;100.00;100387.63;4954282;29;20023;-77
2021/08/15 09:54:38;;;;;;;18.13;7.22;;;;;;;18.03;100.00;100378.44;4953761;28;19917;-77
2021/08/15 09:57:06;;;;;;;20.38;7.60;;;;;;;18.12;100.00;100377.97;4955024;28;20041;-77
2021/08/15 09:59:35;;;;;;;19.88;7.90;;;;;;;18.50;100.00;100375.91;4954938;28;20042;-77
2021/08/15 10:02:01;;;;;;;20.08;8.15;;;;;;;18.85;100.00;100378.44;4954840;28;20395;-77
2021/08/15 10:04:26;;;;;;;16.42;8.07;;;;;;;18.81;100.00;100371.66;4955120;28;20031;-77
2021/08/15 10:06:55;;;;;;;19.73;7.72;;;;;;;18.99;100.00;100356.63;4954874;28;20511;-77
2021/08/15 10:09:21;;;;;;;22.38;8.23;;;;;;;19.65;100.00;100356.34;4954788;28;20027;-77
2021/08/15 10:11:47;;;;;;;17.83;8.27;;;;;;;20.41;99.60;100350.84;4954801;28;20094;-77
2021/08/15 10:14:13;;;;;;;19.73;7.55;;;;;;;21.60;94.92;100354.59;4953667;29;20023;-77
2021/08/15 10:17:01;;;;;;;19.98;7.10;;;;;;;21.08;95.09;100358.03;4953741;29;20038;-77
2021/08/15 10:19:31;;;;;;;17.08;6.80;;;;;;;20.58;100.00;100356.88;4955116;28;20047;-77
2021/08/15 10:21:58;;;;;;;16.25;6.47;;;;;;;20.46;97.42;100350.53;4954105;28;20031;-77
2021/08/15 10:24:39;;;;;;;19.95;7.18;;;;;;;21.33;95.92;100347.53;4954669;28;20110;-77
2021/08/15 10:27:04;;;;;;;18.50;6.60;;;;;;;21.11;94.61;100340.22;4953414;29;20023;-77
2021/08/15 10:29:36;;;;;;;13.82;5.53;;;;;;;21.53;92.56;100340.97;4953292;28;20035;-77
2021/08/15 10:32:12;;;;;;;13.95;5.47;;;;;;;21.96;96.08;100345.97;4953347;29;20027;-77
2021/08/15 10:34:49;;;;;;;16.75;5.28;;;;;;;22.75;90.84;100339.53;4954579;28;20032;-77
2021/08/15 10:37:33;;;;;;;15.27;5.93;;;;;;;24.34;75.65;100333.69;4954622;28;20444;-77
2021/08/15 10:40:03;;;;;;;13.40;5.22;;;;;;;24.69;72.34;100324.75;4953403;28;20110;-78
2021/08/15 10:42:37;;;;;;;12.05;5.13;;;;;;;24.32;75.97;100325.00;4954873;28;20019;-78
2021/08/15 10:45:25;;;;;;;17.90;5.90;;;;;;;24.33;73.65;100326.72;4954925;28;20086;-78
2021/08/15 10:48:05;;;;;;;16.77;5.43;;;;;;;25.42;70.19;100315.19;4955018;28;20476;-78
2021/08/15 10:50:54;;;;;;;16.90;5.55;;;;;;;25.12;70.08;100323.88;4978108;23;20403;-79
2021/08/15 10:53:26;;;;;;;12.18;4.88;;;;;;;25.73;67.30;100313.41;4954556;28;20484;-80
2021/08/15 10:55:52;;;;;;;13.20;5.20;;;;;;;24.31;72.43;100307.44;4955724;28;20065;-80
2021/08/15 10:58:47;;;;;;;13.77;4.68;;;;;;;25.91;67.91;100313.69;4958072;28;20027;-80
2021/08/15 11:01:39;;;;;;;11.73;4.30;;;;;;;26.75;67.31;100314.22;4948369;28;20042;-80
2021/08/15 11:04:04;;;;;;;10.82;4.38;;;;;;;27.41;58.53;100296.75;4957810;29;20581;-80
2021/08/15 11:06:29;;;;;;;13.80;5.00;;;;;;;27.03;55.96;100299.28;4958254;28;20031;-80
2021/08/15 11:08:56;;;;;;;11.93;4.30;;;;;;;26.84;57.46;100297.44;4958270;28;20027;-80
2021/08/15 11:11:25;;;;;;;12.57;4.25;;;;;;;24.29;69.68;100289.00;4958291;28;20031;-79